sensor_id;sensor_type;location;lat;lon;timestamp;P1;durP1;ratioP1;P2;durP2;ratioP2
1308;SDS011;647;48.840;9.314;2022-12-11T00:01:29;79.93;;;19.52;;
1308;SDS011;647;48.840;9.314;2022-12-11T00:03:56;83.80;;;21.73;;
1308;SDS011;647;48.840;9.314;2022-12-11T00:06:23;83.68;;;21.52;;
1308;SDS011;647;48.840;9.314;2022-12-11T00:08:50;86.63;;;22.58;;
1308;SDS011;647;48.840;9.314;2022-12-11T00:11:18;87.05;;;22.48;;
1308;SDS011;647;48.840;9.314;2022-12-11T00:13:47;84.75;;;21.98;;
1308;SDS011;647;48.840;9.314;2022-12-11T00:16:14;88.90;;;23.70;;
1308;SDS011;647;48.840;9.314;2022-12-11T00:18:41;85.68;;;23.50;;
1308;SDS011;647;48.840;9.314;2022-12-11T00:21:10;87.75;;;23.70;;
1308;SDS011;647;48.840;9.314;2022-12-11T00:23:37;84.22;;;21.13;;
1308;SDS011;647;48.840;9.314;2022-12-11T00:26:05;83.13;;;20.80;;
1308;SDS011;647;48.840;9.314;2022-12-11T00:28:33;89.10;;;22.02;;
1308;SDS011;647;48.840;9.314;2022-12-11T00:31:03;83.20;;;20.90;;
1308;SDS011;647;48.840;9.314;2022-12-11T00:33:30;87.90;;;21.10;;
1308;SDS011;647;48.840;9.314;2022-12-11T00:35:57;87.22;;;24.27;;
1308;SDS011;647;48.840;9.314;2022-12-11T00:38:24;85.72;;;22.15;;
1308;SDS011;647;48.840;9.314;2022-12-11T00:40:51;84.65;;;22.35;;
1308;SDS011;647;48.840;9.314;2022-12-11T00:43:19;86.53;;;22.15;;
1308;SDS011;647;48.840;9.314;2022-12-11T00:45:46;86.70;;;21.15;;
1308;SDS011;647;48.840;9.314;2022-12-11T00:48:14;85.82;;;22.52;;
1308;SDS011;647;48.840;9.314;2022-12-11T00:50:41;83.07;;;18.88;;
1308;SDS011;647;48.840;9.314;2022-12-11T00:53:08;85.22;;;21.52;;
1308;SDS011;647;48.840;9.314;2022-12-11T00:55:36;84.88;;;21.75;;
1308;SDS011;647;48.840;9.314;2022-12-11T00:58:03;80.53;;;19.85;;
1308;SDS011;647;48.840;9.314;2022-12-11T01:00:30;85.22;;;21.23;;
1308;SDS011;647;48.840;9.314;2022-12-11T01:02:58;82.50;;;20.52;;
1308;SDS011;647;48.840;9.314;2022-12-11T01:05:26;80.45;;;20.40;;
1308;SDS011;647;48.840;9.314;2022-12-11T01:07:53;80.63;;;20.52;;
1308;SDS011;647;48.840;9.314;2022-12-11T01:10:20;84.85;;;19.27;;
1308;SDS011;647;48.840;9.314;2022-12-11T01:12:50;88.38;;;20.83;;
1308;SDS011;647;48.840;9.314;2022-12-11T01:15:17;82.65;;;20.02;;
1308;SDS011;647;48.840;9.314;2022-12-11T01:17:44;83.25;;;19.50;;
1308;SDS011;647;48.840;9.314;2022-12-11T01:20:11;86.90;;;21.40;;
1308;SDS011;647;48.840;9.314;2022-12-11T01:22:40;85.72;;;19.95;;
1308;SDS011;647;48.840;9.314;2022-12-11T01:25:07;83.95;;;21.33;;
1308;SDS011;647;48.840;9.314;2022-12-11T01:27:35;82.25;;;20.02;;
1308;SDS011;647;48.840;9.314;2022-12-11T01:30:03;80.35;;;19.65;;
1308;SDS011;647;48.840;9.314;2022-12-11T01:32:31;82.43;;;20.25;;
1308;SDS011;647;48.840;9.314;2022-12-11T01:34:59;89.85;;;22.95;;
1308;SDS011;647;48.840;9.314;2022-12-11T01:37:26;83.30;;;21.13;;
1308;SDS011;647;48.840;9.314;2022-12-11T01:39:55;83.65;;;20.42;;
1308;SDS011;647;48.840;9.314;2022-12-11T01:42:22;82.75;;;21.45;;
1308;SDS011;647;48.840;9.314;2022-12-11T01:47:51;85.20;;;20.60;;
1308;SDS011;647;48.840;9.314;2022-12-11T01:50:19;87.82;;;21.00;;
1308;SDS011;647;48.840;9.314;2022-12-11T01:52:47;85.60;;;21.42;;
1308;SDS011;647;48.840;9.314;2022-12-11T01:55:16;86.07;;;19.65;;
1308;SDS011;647;48.840;9.314;2022-12-11T01:57:46;82.25;;;21.50;;
1308;SDS011;647;48.840;9.314;2022-12-11T02:00:15;86.47;;;21.67;;
1308;SDS011;647;48.840;9.314;2022-12-11T02:02:42;84.25;;;19.88;;
1308;SDS011;647;48.840;9.314;2022-12-11T02:05:10;88.25;;;21.48;;
1308;SDS011;647;48.840;9.314;2022-12-11T02:07:38;79.80;;;19.52;;
1308;SDS011;647;48.840;9.314;2022-12-11T02:10:07;86.28;;;22.38;;
1308;SDS011;647;48.840;9.314;2022-12-11T02:12:38;83.07;;;21.02;;
1308;SDS011;647;48.840;9.314;2022-12-11T02:15:08;83.30;;;20.95;;
1308;SDS011;647;48.840;9.314;2022-12-11T02:17:39;79.97;;;20.17;;
1308;SDS011;647;48.840;9.314;2022-12-11T02:20:08;84.15;;;20.55;;
1308;SDS011;647;48.840;9.314;2022-12-11T02:22:45;85.25;;;21.88;;
1308;SDS011;647;48.840;9.314;2022-12-11T02:25:14;85.50;;;21.27;;
1308;SDS011;647;48.840;9.314;2022-12-11T02:27:44;80.93;;;20.73;;
1308;SDS011;647;48.840;9.314;2022-12-11T02:30:13;81.03;;;20.83;;
1308;SDS011;647;48.840;9.314;2022-12-11T02:32:42;83.80;;;21.33;;
1308;SDS011;647;48.840;9.314;2022-12-11T02:35:12;82.25;;;19.45;;
1308;SDS011;647;48.840;9.314;2022-12-11T02:37:40;86.60;;;21.92;;
1308;SDS011;647;48.840;9.314;2022-12-11T02:40:10;83.15;;;21.17;;
1308;SDS011;647;48.840;9.314;2022-12-11T02:42:39;81.97;;;19.63;;
1308;SDS011;647;48.840;9.314;2022-12-11T02:45:07;86.25;;;23.50;;
1308;SDS011;647;48.840;9.314;2022-12-11T02:47:36;83.43;;;20.98;;
1308;SDS011;647;48.840;9.314;2022-12-11T02:50:05;84.80;;;21.73;;
1308;SDS011;647;48.840;9.314;2022-12-11T02:52:34;85.97;;;22.60;;
1308;SDS011;647;48.840;9.314;2022-12-11T02:55:02;85.55;;;22.65;;
1308;SDS011;647;48.840;9.314;2022-12-11T02:57:32;86.47;;;21.17;;
1308;SDS011;647;48.840;9.314;2022-12-11T03:00:01;82.47;;;21.25;;
1308;SDS011;647;48.840;9.314;2022-12-11T03:02:29;82.82;;;20.73;;
1308;SDS011;647;48.840;9.314;2022-12-11T03:04:57;81.68;;;20.90;;
1308;SDS011;647;48.840;9.314;2022-12-11T03:07:26;84.82;;;22.33;;
1308;SDS011;647;48.840;9.314;2022-12-11T03:09:54;84.65;;;22.50;;
1308;SDS011;647;48.840;9.314;2022-12-11T03:12:21;80.90;;;20.63;;
1308;SDS011;647;48.840;9.314;2022-12-11T03:14:49;84.28;;;21.23;;
1308;SDS011;647;48.840;9.314;2022-12-11T03:17:18;84.93;;;22.00;;
1308;SDS011;647;48.840;9.314;2022-12-11T03:19:46;80.53;;;20.08;;
1308;SDS011;647;48.840;9.314;2022-12-11T03:22:16;81.05;;;19.77;;
1308;SDS011;647;48.840;9.314;2022-12-11T03:24:45;80.18;;;19.75;;
1308;SDS011;647;48.840;9.314;2022-12-11T03:27:14;81.00;;;20.13;;
1308;SDS011;647;48.840;9.314;2022-12-11T03:29:45;83.53;;;21.50;;
1308;SDS011;647;48.840;9.314;2022-12-11T03:32:16;80.00;;;20.48;;
1308;SDS011;647;48.840;9.314;2022-12-11T03:34:49;82.70;;;21.40;;
1308;SDS011;647;48.840;9.314;2022-12-11T03:37:18;79.07;;;20.98;;
1308;SDS011;647;48.840;9.314;2022-12-11T03:39:47;81.32;;;20.23;;
1308;SDS011;647;48.840;9.314;2022-12-11T03:42:15;83.55;;;19.92;;
1308;SDS011;647;48.840;9.314;2022-12-11T03:44:44;79.13;;;19.55;;
1308;SDS011;647;48.840;9.314;2022-12-11T03:47:12;80.75;;;21.27;;
1308;SDS011;647;48.840;9.314;2022-12-11T03:49:41;78.00;;;18.45;;
1308;SDS011;647;48.840;9.314;2022-12-11T03:52:09;79.22;;;17.02;;
1308;SDS011;647;48.840;9.314;2022-12-11T03:54:40;80.03;;;18.58;;
1308;SDS011;647;48.840;9.314;2022-12-11T03:57:09;78.18;;;17.80;;
1308;SDS011;647;48.840;9.314;2022-12-11T03:59:37;81.57;;;21.70;;
1308;SDS011;647;48.840;9.314;2022-12-11T04:02:04;85.45;;;20.20;;
1308;SDS011;647;48.840;9.314;2022-12-11T04:04:35;77.22;;;19.45;;
1308;SDS011;647;48.840;9.314;2022-12-11T04:07:02;79.13;;;19.80;;
1308;SDS011;647;48.840;9.314;2022-12-11T04:09:29;83.50;;;20.42;;
1308;SDS011;647;48.840;9.314;2022-12-11T04:11:58;80.57;;;18.30;;
1308;SDS011;647;48.840;9.314;2022-12-11T04:14:25;79.32;;;19.75;;
1308;SDS011;647;48.840;9.314;2022-12-11T04:17:10;83.25;;;21.90;;
1308;SDS011;647;48.840;9.314;2022-12-11T04:19:57;84.22;;;22.60;;
1308;SDS011;647;48.840;9.314;2022-12-11T04:22:42;84.43;;;21.48;;
1308;SDS011;647;48.840;9.314;2022-12-11T04:25:26;84.40;;;21.40;;
1308;SDS011;647;48.840;9.314;2022-12-11T04:27:55;79.60;;;18.88;;
1308;SDS011;647;48.840;9.314;2022-12-11T04:30:22;84.85;;;21.75;;
1308;SDS011;647;48.840;9.314;2022-12-11T04:32:50;83.30;;;19.88;;
1308;SDS011;647;48.840;9.314;2022-12-11T04:35:18;80.35;;;20.00;;
1308;SDS011;647;48.840;9.314;2022-12-11T04:37:45;85.43;;;20.90;;
1308;SDS011;647;48.840;9.314;2022-12-11T04:40:13;84.70;;;21.20;;
1308;SDS011;647;48.840;9.314;2022-12-11T04:42:41;81.75;;;19.73;;
1308;SDS011;647;48.840;9.314;2022-12-11T04:45:10;85.20;;;21.25;;
1308;SDS011;647;48.840;9.314;2022-12-11T04:47:37;86.97;;;21.23;;
1308;SDS011;647;48.840;9.314;2022-12-11T04:50:05;80.38;;;20.38;;
1308;SDS011;647;48.840;9.314;2022-12-11T04:52:33;84.70;;;19.92;;
1308;SDS011;647;48.840;9.314;2022-12-11T04:55:00;80.68;;;20.17;;
1308;SDS011;647;48.840;9.314;2022-12-11T04:57:27;86.05;;;19.13;;
1308;SDS011;647;48.840;9.314;2022-12-11T04:59:54;84.50;;;21.65;;
1308;SDS011;647;48.840;9.314;2022-12-11T05:02:23;85.70;;;22.63;;
1308;SDS011;647;48.840;9.314;2022-12-11T05:04:50;82.43;;;19.35;;
1308;SDS011;647;48.840;9.314;2022-12-11T05:07:17;90.30;;;22.63;;
1308;SDS011;647;48.840;9.314;2022-12-11T05:09:44;84.88;;;22.63;;
1308;SDS011;647;48.840;9.314;2022-12-11T05:12:11;82.65;;;22.33;;
1308;SDS011;647;48.840;9.314;2022-12-11T05:14:38;87.82;;;23.00;;
1308;SDS011;647;48.840;9.314;2022-12-11T05:17:06;86.88;;;22.55;;
1308;SDS011;647;48.840;9.314;2022-12-11T05:19:34;87.15;;;20.42;;
1308;SDS011;647;48.840;9.314;2022-12-11T05:22:01;85.68;;;22.40;;
1308;SDS011;647;48.840;9.314;2022-12-11T05:24:28;87.82;;;24.80;;
1308;SDS011;647;48.840;9.314;2022-12-11T05:26:55;86.57;;;24.52;;
1308;SDS011;647;48.840;9.314;2022-12-11T05:29:23;83.95;;;22.33;;
1308;SDS011;647;48.840;9.314;2022-12-11T05:31:50;83.82;;;21.65;;
1308;SDS011;647;48.840;9.314;2022-12-11T05:34:17;86.35;;;22.92;;
1308;SDS011;647;48.840;9.314;2022-12-11T05:36:45;86.10;;;22.10;;
1308;SDS011;647;48.840;9.314;2022-12-11T05:39:13;86.68;;;22.67;;
1308;SDS011;647;48.840;9.314;2022-12-11T05:41:40;87.88;;;22.48;;
1308;SDS011;647;48.840;9.314;2022-12-11T05:44:08;83.22;;;21.48;;
1308;SDS011;647;48.840;9.314;2022-12-11T05:46:36;87.32;;;22.13;;
1308;SDS011;647;48.840;9.314;2022-12-11T05:49:03;83.07;;;21.73;;
1308;SDS011;647;48.840;9.314;2022-12-11T05:51:30;89.53;;;22.55;;
1308;SDS011;647;48.840;9.314;2022-12-11T05:54:00;84.95;;;21.15;;
1308;SDS011;647;48.840;9.314;2022-12-11T05:56:28;90.18;;;23.40;;
1308;SDS011;647;48.840;9.314;2022-12-11T05:58:56;87.43;;;22.90;;
1308;SDS011;647;48.840;9.314;2022-12-11T06:01:24;84.20;;;21.33;;
1308;SDS011;647;48.840;9.314;2022-12-11T06:03:51;93.90;;;23.27;;
1308;SDS011;647;48.840;9.314;2022-12-11T06:06:19;87.00;;;22.92;;
1308;SDS011;647;48.840;9.314;2022-12-11T06:08:48;91.95;;;26.85;;
1308;SDS011;647;48.840;9.314;2022-12-11T06:11:16;93.72;;;24.85;;
1308;SDS011;647;48.840;9.314;2022-12-11T06:13:43;91.47;;;24.10;;
1308;SDS011;647;48.840;9.314;2022-12-11T06:16:11;97.28;;;25.20;;
1308;SDS011;647;48.840;9.314;2022-12-11T06:18:42;88.35;;;24.30;;
1308;SDS011;647;48.840;9.314;2022-12-11T06:21:13;91.40;;;23.60;;
1308;SDS011;647;48.840;9.314;2022-12-11T06:23:40;92.65;;;25.50;;
1308;SDS011;647;48.840;9.314;2022-12-11T06:26:08;88.60;;;24.35;;
1308;SDS011;647;48.840;9.314;2022-12-11T06:28:37;90.82;;;23.40;;
1308;SDS011;647;48.840;9.314;2022-12-11T06:31:04;88.15;;;24.20;;
1308;SDS011;647;48.840;9.314;2022-12-11T06:33:32;86.63;;;22.63;;
1308;SDS011;647;48.840;9.314;2022-12-11T06:36:00;88.18;;;23.33;;
1308;SDS011;647;48.840;9.314;2022-12-11T06:38:27;89.60;;;23.85;;
1308;SDS011;647;48.840;9.314;2022-12-11T06:40:54;92.07;;;23.88;;
1308;SDS011;647;48.840;9.314;2022-12-11T06:43:21;93.68;;;24.73;;
1308;SDS011;647;48.840;9.314;2022-12-11T06:45:50;91.90;;;25.13;;
1308;SDS011;647;48.840;9.314;2022-12-11T06:48:17;90.03;;;24.90;;
1308;SDS011;647;48.840;9.314;2022-12-11T06:50:44;92.78;;;27.98;;
1308;SDS011;647;48.840;9.314;2022-12-11T06:53:12;88.85;;;24.08;;
1308;SDS011;647;48.840;9.314;2022-12-11T06:55:40;88.72;;;22.52;;
1308;SDS011;647;48.840;9.314;2022-12-11T06:58:07;89.10;;;23.92;;
1308;SDS011;647;48.840;9.314;2022-12-11T07:00:35;90.68;;;25.48;;
1308;SDS011;647;48.840;9.314;2022-12-11T07:03:03;98.40;;;26.73;;
1308;SDS011;647;48.840;9.314;2022-12-11T07:05:31;86.65;;;24.20;;
1308;SDS011;647;48.840;9.314;2022-12-11T07:07:58;94.57;;;25.73;;
1308;SDS011;647;48.840;9.314;2022-12-11T07:10:25;89.93;;;25.83;;
1308;SDS011;647;48.840;9.314;2022-12-11T07:12:52;94.95;;;26.65;;
1308;SDS011;647;48.840;9.314;2022-12-11T07:15:19;92.38;;;24.08;;
1308;SDS011;647;48.840;9.314;2022-12-11T07:17:47;94.97;;;26.05;;
1308;SDS011;647;48.840;9.314;2022-12-11T07:20:15;93.93;;;25.52;;
1308;SDS011;647;48.840;9.314;2022-12-11T07:22:42;95.75;;;27.58;;
1308;SDS011;647;48.840;9.314;2022-12-11T07:25:09;92.18;;;25.50;;
1308;SDS011;647;48.840;9.314;2022-12-11T07:27:36;88.53;;;23.95;;
1308;SDS011;647;48.840;9.314;2022-12-11T07:30:04;95.50;;;25.63;;
1308;SDS011;647;48.840;9.314;2022-12-11T07:32:31;89.72;;;25.33;;
1308;SDS011;647;48.840;9.314;2022-12-11T07:34:58;91.95;;;27.65;;
1308;SDS011;647;48.840;9.314;2022-12-11T07:37:27;103.38;;;33.33;;
1308;SDS011;647;48.840;9.314;2022-12-11T07:39:54;106.20;;;34.88;;
1308;SDS011;647;48.840;9.314;2022-12-11T07:42:21;103.30;;;31.70;;
1308;SDS011;647;48.840;9.314;2022-12-11T07:44:48;97.75;;;28.48;;
1308;SDS011;647;48.840;9.314;2022-12-11T07:47:15;92.72;;;26.83;;
1308;SDS011;647;48.840;9.314;2022-12-11T07:49:42;99.32;;;30.00;;
1308;SDS011;647;48.840;9.314;2022-12-11T07:52:09;98.97;;;29.35;;
1308;SDS011;647;48.840;9.314;2022-12-11T07:54:38;93.38;;;26.63;;
1308;SDS011;647;48.840;9.314;2022-12-11T07:57:05;98.88;;;29.23;;
1308;SDS011;647;48.840;9.314;2022-12-11T07:59:32;96.55;;;27.02;;
1308;SDS011;647;48.840;9.314;2022-12-11T08:02:00;93.78;;;26.75;;
1308;SDS011;647;48.840;9.314;2022-12-11T08:04:27;99.80;;;29.55;;
1308;SDS011;647;48.840;9.314;2022-12-11T08:06:54;100.72;;;29.90;;
1308;SDS011;647;48.840;9.314;2022-12-11T08:09:21;97.30;;;29.55;;
1308;SDS011;647;48.840;9.314;2022-12-11T08:11:50;96.00;;;27.90;;
1308;SDS011;647;48.840;9.314;2022-12-11T08:14:17;93.25;;;28.90;;
1308;SDS011;647;48.840;9.314;2022-12-11T08:16:45;90.95;;;26.83;;
1308;SDS011;647;48.840;9.314;2022-12-11T08:19:12;101.43;;;30.35;;
1308;SDS011;647;48.840;9.314;2022-12-11T08:21:39;97.43;;;29.25;;
1308;SDS011;647;48.840;9.314;2022-12-11T08:24:07;97.00;;;27.65;;
1308;SDS011;647;48.840;9.314;2022-12-11T08:26:34;98.90;;;29.25;;
1308;SDS011;647;48.840;9.314;2022-12-11T08:29:03;93.55;;;27.27;;
1308;SDS011;647;48.840;9.314;2022-12-11T08:31:30;94.90;;;27.27;;
1308;SDS011;647;48.840;9.314;2022-12-11T08:33:57;89.75;;;26.45;;
1308;SDS011;647;48.840;9.314;2022-12-11T08:36:24;93.35;;;27.10;;
1308;SDS011;647;48.840;9.314;2022-12-11T08:38:52;93.85;;;27.20;;
1308;SDS011;647;48.840;9.314;2022-12-11T08:41:21;94.22;;;27.95;;
1308;SDS011;647;48.840;9.314;2022-12-11T08:43:48;93.53;;;26.00;;
1308;SDS011;647;48.840;9.314;2022-12-11T08:46:20;94.47;;;27.58;;
1308;SDS011;647;48.840;9.314;2022-12-11T08:48:48;91.28;;;27.27;;
1308;SDS011;647;48.840;9.314;2022-12-11T08:51:16;93.22;;;25.58;;
1308;SDS011;647;48.840;9.314;2022-12-11T08:53:44;93.85;;;27.48;;
1308;SDS011;647;48.840;9.314;2022-12-11T08:56:12;91.93;;;26.40;;
1308;SDS011;647;48.840;9.314;2022-12-11T08:58:39;89.85;;;25.50;;
1308;SDS011;647;48.840;9.314;2022-12-11T09:01:07;91.75;;;27.33;;
1308;SDS011;647;48.840;9.314;2022-12-11T09:03:36;92.78;;;26.83;;
1308;SDS011;647;48.840;9.314;2022-12-11T09:06:04;88.50;;;24.52;;
1308;SDS011;647;48.840;9.314;2022-12-11T09:08:31;91.25;;;26.10;;
1308;SDS011;647;48.840;9.314;2022-12-11T09:11:01;94.60;;;27.17;;
1308;SDS011;647;48.840;9.314;2022-12-11T09:13:28;91.50;;;26.23;;
1308;SDS011;647;48.840;9.314;2022-12-11T09:15:55;91.25;;;25.92;;
1308;SDS011;647;48.840;9.314;2022-12-11T09:18:22;91.72;;;25.70;;
1308;SDS011;647;48.840;9.314;2022-12-11T09:20:57;87.32;;;23.60;;
1308;SDS011;647;48.840;9.314;2022-12-11T09:23:25;96.25;;;26.17;;
1308;SDS011;647;48.840;9.314;2022-12-11T09:25:52;87.22;;;23.33;;
1308;SDS011;647;48.840;9.314;2022-12-11T09:28:19;92.82;;;27.33;;
1308;SDS011;647;48.840;9.314;2022-12-11T09:30:46;90.97;;;26.35;;
1308;SDS011;647;48.840;9.314;2022-12-11T09:33:14;96.68;;;28.15;;
1308;SDS011;647;48.840;9.314;2022-12-11T09:35:41;91.60;;;26.80;;
1308;SDS011;647;48.840;9.314;2022-12-11T09:38:10;93.03;;;27.77;;
1308;SDS011;647;48.840;9.314;2022-12-11T09:40:40;91.40;;;26.95;;
1308;SDS011;647;48.840;9.314;2022-12-11T09:43:11;91.13;;;26.05;;
1308;SDS011;647;48.840;9.314;2022-12-11T09:45:39;94.50;;;28.90;;
1308;SDS011;647;48.840;9.314;2022-12-11T09:48:07;97.88;;;28.15;;
1308;SDS011;647;48.840;9.314;2022-12-11T09:50:35;91.70;;;27.80;;
1308;SDS011;647;48.840;9.314;2022-12-11T09:53:04;93.57;;;27.27;;
1308;SDS011;647;48.840;9.314;2022-12-11T09:55:35;95.32;;;31.35;;
1308;SDS011;647;48.840;9.314;2022-12-11T09:58:07;88.32;;;25.42;;
1308;SDS011;647;48.840;9.314;2022-12-11T10:00:40;95.35;;;27.23;;
1308;SDS011;647;48.840;9.314;2022-12-11T10:03:18;94.43;;;27.45;;
1308;SDS011;647;48.840;9.314;2022-12-11T10:05:49;92.57;;;26.05;;
1308;SDS011;647;48.840;9.314;2022-12-11T10:08:19;90.15;;;25.35;;
1308;SDS011;647;48.840;9.314;2022-12-11T10:10:53;88.13;;;24.20;;
1308;SDS011;647;48.840;9.314;2022-12-11T10:13:25;86.10;;;23.45;;
1308;SDS011;647;48.840;9.314;2022-12-11T10:15:55;89.20;;;23.83;;
1308;SDS011;647;48.840;9.314;2022-12-11T10:18:25;87.78;;;24.17;;
1308;SDS011;647;48.840;9.314;2022-12-11T10:20:53;89.47;;;25.60;;
1308;SDS011;647;48.840;9.314;2022-12-11T10:23:21;91.53;;;24.75;;
1308;SDS011;647;48.840;9.314;2022-12-11T10:25:52;85.88;;;24.50;;
1308;SDS011;647;48.840;9.314;2022-12-11T10:28:20;91.00;;;25.63;;
1308;SDS011;647;48.840;9.314;2022-12-11T10:30:47;89.30;;;25.70;;
1308;SDS011;647;48.840;9.314;2022-12-11T10:33:17;93.25;;;26.20;;
1308;SDS011;647;48.840;9.314;2022-12-11T10:35:47;81.68;;;20.25;;
1308;SDS011;647;48.840;9.314;2022-12-11T10:38:15;81.57;;;19.25;;
1308;SDS011;647;48.840;9.314;2022-12-11T10:40:43;83.20;;;19.73;;
1308;SDS011;647;48.840;9.314;2022-12-11T10:43:12;77.60;;;16.80;;
1308;SDS011;647;48.840;9.314;2022-12-11T10:45:48;75.97;;;16.20;;
1308;SDS011;647;48.840;9.314;2022-12-11T10:48:15;78.78;;;18.45;;
1308;SDS011;647;48.840;9.314;2022-12-11T10:50:42;79.85;;;18.90;;
1308;SDS011;647;48.840;9.314;2022-12-11T10:53:18;82.93;;;19.05;;
1308;SDS011;647;48.840;9.314;2022-12-11T10:55:45;77.78;;;18.83;;
1308;SDS011;647;48.840;9.314;2022-12-11T10:58:16;78.93;;;19.60;;
1308;SDS011;647;48.840;9.314;2022-12-11T11:00:44;82.40;;;17.85;;
1308;SDS011;647;48.840;9.314;2022-12-11T11:03:19;79.43;;;18.83;;
1308;SDS011;647;48.840;9.314;2022-12-11T11:05:46;80.47;;;19.00;;
1308;SDS011;647;48.840;9.314;2022-12-11T11:08:16;76.43;;;17.40;;
1308;SDS011;647;48.840;9.314;2022-12-11T11:10:51;75.85;;;16.63;;
1308;SDS011;647;48.840;9.314;2022-12-11T11:13:20;80.45;;;17.00;;
1308;SDS011;647;48.840;9.314;2022-12-11T11:15:48;78.65;;;18.10;;
1308;SDS011;647;48.840;9.314;2022-12-11T11:18:16;81.13;;;19.00;;
1308;SDS011;647;48.840;9.314;2022-12-11T11:20:47;77.85;;;18.85;;
1308;SDS011;647;48.840;9.314;2022-12-11T11:23:15;79.28;;;17.95;;
1308;SDS011;647;48.840;9.314;2022-12-11T11:25:47;81.45;;;17.80;;
1308;SDS011;647;48.840;9.314;2022-12-11T11:28:16;86.25;;;23.15;;
1308;SDS011;647;48.840;9.314;2022-12-11T11:30:54;96.65;;;26.58;;
1308;SDS011;647;48.840;9.314;2022-12-11T11:33:22;76.55;;;17.15;;
1308;SDS011;647;48.840;9.314;2022-12-11T11:35:50;79.30;;;15.85;;
1308;SDS011;647;48.840;9.314;2022-12-11T11:38:18;73.95;;;14.63;;
1308;SDS011;647;48.840;9.314;2022-12-11T11:40:47;74.95;;;14.15;;
1308;SDS011;647;48.840;9.314;2022-12-11T11:43:17;72.95;;;13.10;;
1308;SDS011;647;48.840;9.314;2022-12-11T11:45:49;72.13;;;13.88;;
1308;SDS011;647;48.840;9.314;2022-12-11T11:48:26;72.95;;;14.30;;
1308;SDS011;647;48.840;9.314;2022-12-11T11:50:54;72.57;;;15.20;;
1308;SDS011;647;48.840;9.314;2022-12-11T11:53:23;76.70;;;16.38;;
1308;SDS011;647;48.840;9.314;2022-12-11T11:55:56;74.43;;;14.48;;
1308;SDS011;647;48.840;9.314;2022-12-11T11:58:25;74.10;;;15.85;;
1308;SDS011;647;48.840;9.314;2022-12-11T12:00:53;79.88;;;16.08;;
1308;SDS011;647;48.840;9.314;2022-12-11T12:03:21;76.13;;;15.90;;
1308;SDS011;647;48.840;9.314;2022-12-11T12:05:51;72.40;;;13.48;;
1308;SDS011;647;48.840;9.314;2022-12-11T12:08:22;75.27;;;15.50;;
1308;SDS011;647;48.840;9.314;2022-12-11T12:10:53;74.97;;;16.50;;
1308;SDS011;647;48.840;9.314;2022-12-11T12:13:24;75.93;;;16.73;;
1308;SDS011;647;48.840;9.314;2022-12-11T12:15:55;75.10;;;15.30;;
1308;SDS011;647;48.840;9.314;2022-12-11T12:18:25;75.72;;;17.25;;
1308;SDS011;647;48.840;9.314;2022-12-11T12:21:01;71.65;;;13.82;;
1308;SDS011;647;48.840;9.314;2022-12-11T12:23:39;77.72;;;16.00;;
1308;SDS011;647;48.840;9.314;2022-12-11T12:26:08;74.93;;;16.65;;
1308;SDS011;647;48.840;9.314;2022-12-11T12:28:38;77.00;;;16.20;;
1308;SDS011;647;48.840;9.314;2022-12-11T12:31:12;85.00;;;18.17;;
1308;SDS011;647;48.840;9.314;2022-12-11T12:33:45;91.78;;;26.77;;
1308;SDS011;647;48.840;9.314;2022-12-11T12:36:19;87.22;;;22.77;;
1308;SDS011;647;48.840;9.314;2022-12-11T12:38:51;107.82;;;34.38;;
1308;SDS011;647;48.840;9.314;2022-12-11T12:41:21;85.18;;;20.05;;
1308;SDS011;647;48.840;9.314;2022-12-11T12:43:56;90.88;;;23.20;;
1308;SDS011;647;48.840;9.314;2022-12-11T12:46:28;78.60;;;17.77;;
1308;SDS011;647;48.840;9.314;2022-12-11T12:48:58;86.32;;;21.23;;
1308;SDS011;647;48.840;9.314;2022-12-11T12:51:28;163.75;;;51.80;;
1308;SDS011;647;48.840;9.314;2022-12-11T12:53:56;81.97;;;19.08;;
1308;SDS011;647;48.840;9.314;2022-12-11T12:56:25;161.05;;;54.42;;
1308;SDS011;647;48.840;9.314;2022-12-11T12:58:53;204.25;;;72.25;;
1308;SDS011;647;48.840;9.314;2022-12-11T13:01:22;133.35;;;43.20;;
1308;SDS011;647;48.840;9.314;2022-12-11T13:03:51;134.25;;;41.08;;
1308;SDS011;647;48.840;9.314;2022-12-11T13:06:32;130.23;;;44.85;;
1308;SDS011;647;48.840;9.314;2022-12-11T13:09:09;154.63;;;55.00;;
1308;SDS011;647;48.840;9.314;2022-12-11T13:11:36;198.75;;;75.85;;
1308;SDS011;647;48.840;9.314;2022-12-11T13:14:04;95.43;;;27.15;;
1308;SDS011;647;48.840;9.314;2022-12-11T13:16:35;113.53;;;35.78;;
1308;SDS011;647;48.840;9.314;2022-12-11T13:19:14;89.00;;;22.98;;
1308;SDS011;647;48.840;9.314;2022-12-11T13:21:43;98.60;;;30.67;;
1308;SDS011;647;48.840;9.314;2022-12-11T13:24:23;86.07;;;23.00;;
1308;SDS011;647;48.840;9.314;2022-12-11T13:26:51;123.68;;;44.53;;
1308;SDS011;647;48.840;9.314;2022-12-11T13:29:28;124.57;;;44.72;;
1308;SDS011;647;48.840;9.314;2022-12-11T13:31:56;93.35;;;24.90;;
1308;SDS011;647;48.840;9.314;2022-12-11T13:34:24;100.40;;;34.85;;
1308;SDS011;647;48.840;9.314;2022-12-11T13:36:53;159.13;;;62.67;;
1308;SDS011;647;48.840;9.314;2022-12-11T13:39:22;108.35;;;35.45;;
1308;SDS011;647;48.840;9.314;2022-12-11T13:41:50;118.40;;;45.75;;
1308;SDS011;647;48.840;9.314;2022-12-11T13:44:19;196.48;;;96.78;;
1308;SDS011;647;48.840;9.314;2022-12-11T13:46:47;101.40;;;39.28;;
1308;SDS011;647;48.840;9.314;2022-12-11T13:49:19;86.82;;;25.33;;
1308;SDS011;647;48.840;9.314;2022-12-11T13:51:50;84.00;;;22.55;;
1308;SDS011;647;48.840;9.314;2022-12-11T13:54:19;88.00;;;23.30;;
1308;SDS011;647;48.840;9.314;2022-12-11T13:56:52;84.00;;;21.65;;
1308;SDS011;647;48.840;9.314;2022-12-11T13:59:22;83.57;;;21.55;;
1308;SDS011;647;48.840;9.314;2022-12-11T14:01:49;89.10;;;23.95;;
1308;SDS011;647;48.840;9.314;2022-12-11T14:04:18;97.05;;;23.58;;
1308;SDS011;647;48.840;9.314;2022-12-11T14:06:47;90.45;;;25.13;;
1308;SDS011;647;48.840;9.314;2022-12-11T14:09:15;86.85;;;20.65;;
1308;SDS011;647;48.840;9.314;2022-12-11T14:11:45;109.72;;;33.28;;
1308;SDS011;647;48.840;9.314;2022-12-11T14:14:15;86.72;;;24.60;;
1308;SDS011;647;48.840;9.314;2022-12-11T14:16:45;90.10;;;23.50;;
1308;SDS011;647;48.840;9.314;2022-12-11T14:19:13;90.35;;;23.25;;
1308;SDS011;647;48.840;9.314;2022-12-11T14:21:42;83.70;;;20.95;;
1308;SDS011;647;48.840;9.314;2022-12-11T14:24:20;84.68;;;22.63;;
1308;SDS011;647;48.840;9.314;2022-12-11T14:26:49;99.03;;;34.38;;
1308;SDS011;647;48.840;9.314;2022-12-11T14:29:27;94.30;;;27.27;;
1308;SDS011;647;48.840;9.314;2022-12-11T14:31:55;87.85;;;24.80;;
1308;SDS011;647;48.840;9.314;2022-12-11T14:34:24;88.18;;;23.13;;
1308;SDS011;647;48.840;9.314;2022-12-11T14:36:53;85.72;;;20.73;;
1308;SDS011;647;48.840;9.314;2022-12-11T14:39:21;88.05;;;24.55;;
1308;SDS011;647;48.840;9.314;2022-12-11T14:41:52;86.18;;;20.88;;
1308;SDS011;647;48.840;9.314;2022-12-11T14:44:23;87.40;;;23.85;;
1308;SDS011;647;48.840;9.314;2022-12-11T14:46:51;92.07;;;23.70;;
1308;SDS011;647;48.840;9.314;2022-12-11T14:49:20;84.93;;;21.58;;
1308;SDS011;647;48.840;9.314;2022-12-11T14:51:49;87.45;;;22.73;;
1308;SDS011;647;48.840;9.314;2022-12-11T14:54:20;87.40;;;21.67;;
1308;SDS011;647;48.840;9.314;2022-12-11T14:56:49;96.05;;;26.77;;
1308;SDS011;647;48.840;9.314;2022-12-11T14:59:18;90.18;;;23.80;;
1308;SDS011;647;48.840;9.314;2022-12-11T15:01:55;95.50;;;24.08;;
1308;SDS011;647;48.840;9.314;2022-12-11T15:04:25;92.00;;;23.55;;
1308;SDS011;647;48.840;9.314;2022-12-11T15:06:52;87.47;;;21.98;;
1308;SDS011;647;48.840;9.314;2022-12-11T15:09:20;86.45;;;22.13;;
1308;SDS011;647;48.840;9.314;2022-12-11T15:11:47;91.60;;;24.35;;
1308;SDS011;647;48.840;9.314;2022-12-11T15:14:17;90.70;;;21.90;;